createdAt,value
2017-10-28T00:00:06.925Z,1014.83
2017-10-28T00:00:47.561Z,1014.84
2017-10-28T00:01:28.156Z,1014.84
2017-10-28T00:02:08.764Z,1014.84
2017-10-28T00:02:49.401Z,1014.83
2017-10-28T00:03:30.015Z,1014.82
2017-10-28T00:04:10.626Z,1014.81
2017-10-28T00:04:51.237Z,1014.85
2017-10-28T00:05:31.800Z,1014.85
2017-10-28T00:06:12.390Z,1014.81
2017-10-28T00:06:53.010Z,1014.8
2017-10-28T00:07:33.636Z,1014.82
2017-10-28T00:08:14.226Z,1014.83
2017-10-28T00:08:54.846Z,1014.83
2017-10-28T00:09:35.448Z,1014.79
2017-10-28T00:10:16.050Z,1014.79
2017-10-28T00:10:56.704Z,1014.77
2017-10-28T00:11:37.290Z,1014.79
2017-10-28T00:12:17.858Z,1014.73
2017-10-28T00:12:58.447Z,1014.72
2017-10-28T00:13:39.050Z,1014.72
2017-10-28T00:14:19.664Z,1014.67
2017-10-28T00:15:00.240Z,1014.72
2017-10-28T00:15:40.839Z,1014.67
2017-10-28T00:16:21.433Z,1014.65
2017-10-28T00:17:02.026Z,1014.67
2017-10-28T00:17:42.659Z,1014.69
2017-10-28T00:18:23.231Z,1014.72
2017-10-28T00:19:03.828Z,1014.74
2017-10-28T00:19:44.428Z,1014.71
2017-10-28T00:20:25.024Z,1014.64
2017-10-28T00:21:05.611Z,1014.68
2017-10-28T00:21:46.189Z,1014.66
2017-10-28T00:22:26.774Z,1014.66
2017-10-28T00:23:07.352Z,1014.68
2017-10-28T00:23:47.949Z,1014.66
2017-10-28T00:24:28.551Z,1014.65
2017-10-28T00:25:09.125Z,1014.66
2017-10-28T00:25:49.711Z,1014.63
2017-10-28T00:26:30.288Z,1014.63
2017-10-28T00:27:10.847Z,1014.63
2017-10-28T00:27:51.426Z,1014.55
2017-10-28T00:28:32.028Z,1014.59
2017-10-28T00:29:12.634Z,1014.6
2017-10-28T00:29:53.230Z,1014.55
2017-10-28T00:30:33.878Z,1014.52
2017-10-28T00:31:14.507Z,1014.5
2017-10-28T00:31:55.087Z,1014.53
2017-10-28T00:32:36.640Z,1014.5
2017-10-28T00:33:17.249Z,1014.44
2017-10-28T00:33:57.839Z,1014.44
2017-10-28T00:34:38.457Z,1014.45
2017-10-28T00:35:19.065Z,1014.44
2017-10-28T00:35:59.688Z,1014.41
2017-10-28T00:36:40.281Z,1014.32
2017-10-28T00:37:20.866Z,1014.31
2017-10-28T00:38:01.440Z,1014.32
2017-10-28T00:38:42.032Z,1014.26
2017-10-28T00:39:22.606Z,1014.31
2017-10-28T00:40:03.194Z,1014.26
2017-10-28T00:40:43.773Z,1014.23
2017-10-28T00:41:24.349Z,1014.21
2017-10-28T00:42:04.941Z,1014.19
2017-10-28T00:42:45.514Z,1014.18
2017-10-28T00:43:26.084Z,1014.14
2017-10-28T00:44:06.700Z,1014.15
2017-10-28T00:44:47.292Z,1014.14
2017-10-28T00:45:27.879Z,1014.07
2017-10-28T00:46:08.484Z,1014.09
2017-10-28T00:46:49.045Z,1014.05
2017-10-28T00:47:29.623Z,1014.02
2017-10-28T00:48:10.197Z,1013.99
2017-10-28T00:48:50.764Z,1013.97
2017-10-28T00:49:31.353Z,1013.94
2017-10-28T00:50:11.940Z,1013.89
2017-10-28T00:50:52.526Z,1013.9
2017-10-28T00:51:33.127Z,1013.94
2017-10-28T00:52:13.717Z,1013.89
2017-10-28T00:52:54.302Z,1013.91
2017-10-28T00:53:34.878Z,1013.88
2017-10-28T00:54:15.452Z,1013.88
2017-10-28T00:54:56.032Z,1013.88
2017-10-28T00:55:36.620Z,1013.89
2017-10-28T00:56:17.182Z,1013.86
2017-10-28T00:56:57.762Z,1013.81
2017-10-28T00:57:38.327Z,1013.81
2017-10-28T00:58:18.916Z,1013.77
2017-10-28T00:58:59.477Z,1013.74
2017-10-28T00:59:40.032Z,1013.76
2017-10-28T01:00:20.612Z,1013.78
2017-10-28T01:01:01.184Z,1013.72
2017-10-28T01:01:41.760Z,1013.71
2017-10-28T01:02:22.336Z,1013.76
2017-10-28T01:03:02.895Z,1013.72
2017-10-28T01:03:43.513Z,1013.69
2017-10-28T01:04:24.107Z,1013.74
2017-10-28T01:05:04.685Z,1013.7
2017-10-28T01:05:45.279Z,1013.66
2017-10-28T01:06:25.857Z,1013.68
2017-10-28T01:07:06.443Z,1013.64
2017-10-28T01:07:47.032Z,1013.66
2017-10-28T01:08:27.617Z,1013.63
2017-10-28T01:09:08.198Z,1013.64
2017-10-28T01:09:48.877Z,1013.61
2017-10-28T01:12:02.216Z,1013.63
2017-10-28T01:12:42.767Z,1013.58
2017-10-28T01:13:23.346Z,1013.55
2017-10-28T01:14:03.935Z,1013.53
2017-10-28T01:14:44.581Z,1013.5
2017-10-28T01:15:25.117Z,1013.49
2017-10-28T01:16:05.665Z,1013.45
2017-10-28T01:16:46.285Z,1013.45
2017-10-28T01:17:26.892Z,1013.43
2017-10-28T01:18:07.509Z,1013.4
2017-10-28T01:18:48.122Z,1013.44
2017-10-28T01:19:28.660Z,1013.41
2017-10-28T01:20:09.299Z,1013.47
2017-10-28T01:20:49.851Z,1013.34
2017-10-28T01:21:30.702Z,1013.36
2017-10-28T01:22:11.452Z,1013.35
2017-10-28T01:22:52.240Z,1013.45
2017-10-28T01:23:32.995Z,1013.39
2017-10-28T01:24:13.567Z,1013.34
2017-10-28T01:24:54.121Z,1013.36
2017-10-28T01:25:34.686Z,1013.34
2017-10-28T01:26:15.258Z,1013.41
2017-10-28T01:26:55.849Z,1013.19
2017-10-28T01:27:36.411Z,1013.32
2017-10-28T01:28:16.988Z,1013.29
2017-10-28T01:28:57.553Z,1013.26
2017-10-28T01:29:38.152Z,1013.27
2017-10-28T01:30:18.777Z,1013.22
2017-10-28T01:30:59.536Z,1013.22
2017-10-28T01:31:40.124Z,1013.28
2017-10-28T01:32:20.743Z,1013.23
2017-10-28T01:33:01.331Z,1013.19
2017-10-28T01:33:41.952Z,1013.19
2017-10-28T01:34:22.542Z,1013.19
2017-10-28T01:35:03.100Z,1013.23
2017-10-28T01:35:43.663Z,1013.25
2017-10-28T01:36:24.255Z,1013.21
2017-10-28T01:37:04.842Z,1013.15
2017-10-28T01:37:45.405Z,1013.19
2017-10-28T01:38:26.009Z,1013.23
2017-10-28T01:39:06.584Z,1013.1
2017-10-28T01:39:47.159Z,1013.15
2017-10-28T01:40:27.720Z,1013.07
2017-10-28T01:41:08.322Z,1013.13
2017-10-28T01:41:48.897Z,1013.1
2017-10-28T01:42:29.452Z,1013.04
2017-10-28T01:43:10.089Z,1013.07
2017-10-28T01:43:50.671Z,1013.14
2017-10-28T01:44:31.276Z,1013.07
2017-10-28T01:45:11.927Z,1013.03
2017-10-28T01:45:52.530Z,1013.03
2017-10-28T01:46:33.112Z,1013.04
2017-10-28T01:47:13.747Z,1013
2017-10-28T01:47:54.333Z,1012.95
2017-10-28T01:48:34.931Z,1013
2017-10-28T01:49:15.509Z,1013
2017-10-28T01:49:56.099Z,1012.93
2017-10-28T01:50:36.661Z,1012.91
2017-10-28T01:51:17.231Z,1012.93
2017-10-28T01:51:57.791Z,1012.95
2017-10-28T01:52:38.367Z,1012.85
2017-10-28T01:53:18.948Z,1012.84
2017-10-28T01:53:59.535Z,1012.9
2017-10-28T01:54:40.153Z,1012.85
2017-10-28T01:55:20.707Z,1012.9
2017-10-28T01:56:01.291Z,1012.83
2017-10-28T01:56:41.852Z,1012.81
2017-10-28T01:57:22.436Z,1012.83
2017-10-28T01:58:03.017Z,1012.85
2017-10-28T01:58:43.616Z,1012.83
2017-10-28T01:59:24.241Z,1012.79
2017-10-28T02:00:04.827Z,1012.77
2017-10-28T02:00:45.433Z,1012.74
2017-10-28T02:01:26.024Z,1012.76
2017-10-28T02:02:06.664Z,1012.82
2017-10-28T02:02:47.240Z,1012.77
2017-10-28T02:03:28.382Z,1012.8
2017-10-28T02:04:08.586Z,1012.79
2017-10-28T02:04:49.198Z,1012.78
2017-10-28T02:05:29.793Z,1012.79
2017-10-28T02:06:10.344Z,1012.71
2017-10-28T02:06:51.651Z,1012.73
2017-10-28T02:07:32.248Z,1012.71
2017-10-28T02:08:12.831Z,1012.65
2017-10-28T02:08:53.390Z,1012.68
2017-10-28T02:09:33.954Z,1012.71
2017-10-28T02:10:14.512Z,1012.71
2017-10-28T02:10:55.088Z,1012.76
2017-10-28T02:11:35.675Z,1012.75
2017-10-28T02:12:16.241Z,1012.73
2017-10-28T02:12:56.820Z,1012.7
2017-10-28T02:13:37.378Z,1012.75
2017-10-28T02:14:17.955Z,1012.73
2017-10-28T02:14:58.537Z,1012.67
2017-10-28T02:15:39.108Z,1012.73
2017-10-28T02:16:19.741Z,1012.73
2017-10-28T02:17:00.312Z,1012.69
2017-10-28T02:17:40.891Z,1012.72
2017-10-28T02:18:21.475Z,1012.65
2017-10-28T02:19:02.036Z,1012.62
2017-10-28T02:19:42.603Z,1012.59
2017-10-28T02:20:23.191Z,1012.58
2017-10-28T02:21:03.757Z,1012.55
2017-10-28T02:21:44.319Z,1012.51
2017-10-28T02:22:24.897Z,1012.54
2017-10-28T02:23:05.505Z,1012.49
2017-10-28T02:23:46.104Z,1012.47
2017-10-28T02:24:26.661Z,1012.5
2017-10-28T02:25:07.236Z,1012.48
2017-10-28T02:25:47.809Z,1012.44
2017-10-28T02:26:28.362Z,1012.46
2017-10-28T02:27:08.971Z,1012.43
2017-10-28T02:27:49.564Z,1012.38
2017-10-28T02:28:30.148Z,1012.4
2017-10-28T02:29:10.718Z,1012.37
2017-10-28T02:29:51.278Z,1012.37
2017-10-28T02:30:31.878Z,1012.35
2017-10-28T02:31:12.453Z,1012.33
2017-10-28T02:31:53.063Z,1012.32
2017-10-28T02:32:33.658Z,1012.25
2017-10-28T02:33:14.239Z,1012.23
2017-10-28T02:33:54.828Z,1012.32
2017-10-28T02:34:35.409Z,1012.24
2017-10-28T02:35:15.975Z,1012.22
2017-10-28T02:35:56.562Z,1012.24
2017-10-28T02:36:37.140Z,1012.22
2017-10-28T02:37:17.696Z,1012.22
2017-10-28T02:37:58.292Z,1012.24
2017-10-28T02:38:38.855Z,1012.16
2017-10-28T02:39:19.454Z,1012.19
2017-10-28T02:40:00.013Z,1012.15
2017-10-28T02:40:40.617Z,1012.05
2017-10-28T02:41:21.193Z,1012.16
2017-10-28T02:42:01.770Z,1012.11
2017-10-28T02:42:42.344Z,1012.12
2017-10-28T02:43:22.960Z,1012.09
2017-10-28T02:44:03.535Z,1012.1
2017-10-28T02:44:44.121Z,1012.09
2017-10-28T02:45:24.794Z,1011.99
2017-10-28T02:46:05.367Z,1012.05
2017-10-28T02:46:45.950Z,1012.02
2017-10-28T02:47:26.559Z,1012.03
2017-10-28T02:48:07.167Z,1012.03
2017-10-28T02:48:47.744Z,1012.01
2017-10-28T02:49:28.326Z,1011.99
2017-10-28T02:50:08.987Z,1011.97
2017-10-28T02:50:49.561Z,1011.97
2017-10-28T02:51:30.142Z,1011.9
2017-10-28T02:52:10.717Z,1011.93
2017-10-28T02:52:51.312Z,1011.91
2017-10-28T02:53:31.883Z,1011.94
2017-10-28T02:54:12.462Z,1011.95
2017-10-28T02:54:53.049Z,1011.99
2017-10-28T02:55:33.609Z,1011.92
2017-10-28T02:56:14.216Z,1011.89
2017-10-28T02:56:54.768Z,1011.92
2017-10-28T02:57:35.331Z,1011.86
2017-10-28T02:58:15.907Z,1011.91
2017-10-28T02:58:56.462Z,1011.89
2017-10-28T02:59:37.074Z,1011.84
2017-10-28T03:00:17.657Z,1011.86
2017-10-28T03:00:58.231Z,1011.88
2017-10-28T03:01:38.790Z,1011.82
2017-10-28T03:02:19.351Z,1011.85
2017-10-28T03:02:59.929Z,1011.83
2017-10-28T03:03:40.495Z,1011.74
2017-10-28T03:04:21.080Z,1011.81
2017-10-28T03:05:01.658Z,1011.77
2017-10-28T03:05:42.221Z,1011.84
2017-10-28T03:06:22.825Z,1011.77
2017-10-28T03:07:03.663Z,1011.74
2017-10-28T03:07:44.237Z,1011.7
2017-10-28T03:08:24.811Z,1011.73
2017-10-28T03:09:05.399Z,1011.67
2017-10-28T03:09:45.974Z,1011.65
2017-10-28T03:10:26.559Z,1011.69
2017-10-28T03:11:07.129Z,1011.65
2017-10-28T03:11:47.857Z,1011.61
2017-10-28T03:12:28.457Z,1011.63
2017-10-28T03:13:09.057Z,1011.63
2017-10-28T03:13:49.610Z,1011.62
2017-10-28T03:14:30.170Z,1011.68
2017-10-28T03:15:10.771Z,1011.62
2017-10-28T03:15:51.325Z,1011.62
2017-10-28T03:16:31.893Z,1011.58
2017-10-28T03:17:12.478Z,1011.62
2017-10-28T03:17:53.090Z,1011.6
2017-10-28T03:18:33.690Z,1011.51
2017-10-28T03:19:14.313Z,1011.59
2017-10-28T03:19:54.903Z,1011.57
2017-10-28T03:20:35.493Z,1011.63
2017-10-28T03:21:16.060Z,1011.59
2017-10-28T03:21:56.630Z,1011.51
2017-10-28T03:22:37.210Z,1011.58
2017-10-28T03:23:17.806Z,1011.56
2017-10-28T03:23:58.376Z,1011.54
2017-10-28T03:24:38.963Z,1011.48
2017-10-28T03:25:19.562Z,1011.55
2017-10-28T03:26:00.164Z,1011.53
2017-10-28T03:26:40.735Z,1011.55
2017-10-28T03:27:21.328Z,1011.56
2017-10-28T03:28:01.894Z,1011.53
2017-10-28T03:28:42.466Z,1011.45
2017-10-28T03:29:23.041Z,1011.45
2017-10-28T03:30:03.600Z,1011.44
2017-10-28T03:30:44.180Z,1011.46
2017-10-28T03:31:24.734Z,1011.48
2017-10-28T03:32:05.303Z,1011.47
2017-10-28T03:32:45.867Z,1011.44
2017-10-28T03:33:26.428Z,1011.43
2017-10-28T03:34:07.005Z,1011.42
2017-10-28T03:34:47.584Z,1011.42
2017-10-28T03:35:28.175Z,1011.4
2017-10-28T03:36:08.733Z,1011.3
2017-10-28T03:36:49.309Z,1011.37
2017-10-28T03:37:29.871Z,1011.37
2017-10-28T03:38:10.453Z,1011.34
2017-10-28T03:38:51.018Z,1011.35
2017-10-28T03:39:31.599Z,1011.35
2017-10-28T03:40:12.176Z,1011.41
2017-10-28T03:40:52.758Z,1011.41
2017-10-28T03:41:33.343Z,1011.4
2017-10-28T03:42:13.908Z,1011.36
2017-10-28T03:42:54.483Z,1011.41
2017-10-28T03:43:35.066Z,1011.34
2017-10-28T03:44:15.652Z,1011.37
2017-10-28T03:44:56.222Z,1011.29
2017-10-28T03:45:36.788Z,1011.28
2017-10-28T03:46:17.372Z,1011.3
2017-10-28T03:46:57.939Z,1011.27
2017-10-28T03:47:38.502Z,1011.32
2017-10-28T03:48:19.073Z,1011.26
2017-10-28T03:48:59.632Z,1011.22
2017-10-28T03:49:40.191Z,1011.24
2017-10-28T03:50:20.764Z,1011.23
2017-10-28T03:51:01.338Z,1011.25
2017-10-28T03:51:41.899Z,1011.24
2017-10-28T03:52:22.475Z,1011.22
2017-10-28T03:53:03.076Z,1011.21
2017-10-28T03:53:43.650Z,1011.23
2017-10-28T03:54:24.224Z,1011.21
2017-10-28T03:55:04.781Z,1011.22
2017-10-28T03:55:45.358Z,1011.21
2017-10-28T03:56:25.944Z,1011.21
2017-10-28T03:57:06.494Z,1011.18
2017-10-28T03:57:47.062Z,1011.17
2017-10-28T03:58:27.684Z,1011.26
2017-10-28T03:59:08.270Z,1011.17
2017-10-28T03:59:48.810Z,1011.18
2017-10-28T04:00:29.405Z,1011.13
2017-10-28T04:01:09.972Z,1011.22
2017-10-28T04:01:50.540Z,1011.15
2017-10-28T04:02:31.111Z,1011.17
2017-10-28T04:03:11.672Z,1011.16
2017-10-28T04:03:52.257Z,1011.18
2017-10-28T04:04:32.846Z,1011.16
2017-10-28T04:05:13.412Z,1011.1
2017-10-28T04:05:53.984Z,1011.12
2017-10-28T04:06:34.562Z,1011.15
2017-10-28T04:07:15.143Z,1011.14
2017-10-28T04:07:55.713Z,1011.09
2017-10-28T04:08:36.292Z,1011.07
2017-10-28T04:09:16.864Z,1011.07
2017-10-28T04:09:57.433Z,1011.09
2017-10-28T04:10:38.001Z,1011.03
2017-10-28T04:11:18.566Z,1010.99
2017-10-28T04:11:59.144Z,1011
2017-10-28T04:12:39.733Z,1010.95
2017-10-28T04:13:20.303Z,1010.92
2017-10-28T04:14:00.873Z,1010.95
2017-10-28T04:14:41.439Z,1010.97
2017-10-28T04:15:22.032Z,1010.87
2017-10-28T04:16:02.598Z,1010.93
2017-10-28T04:16:43.157Z,1010.9
2017-10-28T04:17:23.723Z,1010.92
2017-10-28T04:18:04.312Z,1010.93
2017-10-28T04:18:44.896Z,1010.9
2017-10-28T04:19:25.467Z,1010.89
2017-10-28T04:20:06.069Z,1010.91
2017-10-28T04:20:46.661Z,1010.87
2017-10-28T04:21:27.237Z,1010.85
2017-10-28T04:22:07.811Z,1010.88
2017-10-28T04:22:48.391Z,1010.84
2017-10-28T04:23:28.966Z,1010.86
2017-10-28T04:24:09.539Z,1010.89
2017-10-28T04:24:50.120Z,1010.88
2017-10-28T04:25:30.699Z,1010.75
2017-10-28T04:26:11.265Z,1010.78
2017-10-28T04:26:51.854Z,1010.8
2017-10-28T04:27:32.452Z,1010.8
2017-10-28T04:28:13.021Z,1010.81
2017-10-28T04:28:53.589Z,1010.75
2017-10-28T04:29:34.195Z,1010.77
2017-10-28T04:30:14.813Z,1010.75
2017-10-28T04:30:55.391Z,1010.68
2017-10-28T04:31:35.962Z,1010.73
2017-10-28T04:32:16.540Z,1010.69
2017-10-28T04:32:57.171Z,1010.72
2017-10-28T04:33:37.783Z,1010.63
2017-10-28T04:34:18.372Z,1010.65
2017-10-28T04:34:58.951Z,1010.64
2017-10-28T04:35:39.522Z,1010.54
2017-10-28T04:36:20.101Z,1010.54
2017-10-28T04:37:00.663Z,1010.52
2017-10-28T04:37:41.258Z,1010.54
2017-10-28T04:38:21.825Z,1010.53
2017-10-28T04:39:02.424Z,1010.48
2017-10-28T04:39:43.003Z,1010.45
2017-10-28T04:40:23.587Z,1010.43
2017-10-28T04:41:04.170Z,1010.44
2017-10-28T04:41:44.730Z,1010.41
2017-10-28T04:42:25.299Z,1010.43
2017-10-28T04:43:05.922Z,1010.45
2017-10-28T04:43:46.486Z,1010.43
2017-10-28T04:44:27.050Z,1010.42
2017-10-28T04:45:07.638Z,1010.36
2017-10-28T04:45:48.227Z,1010.36
2017-10-28T04:46:28.807Z,1010.34
2017-10-28T04:47:09.392Z,1010.38
2017-10-28T04:47:49.995Z,1010.36
2017-10-28T04:48:30.562Z,1010.32
2017-10-28T04:49:11.141Z,1010.29
2017-10-28T04:49:51.708Z,1010.27
2017-10-28T04:50:32.309Z,1010.23
2017-10-28T04:51:12.868Z,1010.19
2017-10-28T04:51:53.468Z,1010.21
2017-10-28T04:52:34.064Z,1010.2
2017-10-28T04:53:14.684Z,1010.23
2017-10-28T04:53:55.269Z,1010.17
2017-10-28T04:54:35.878Z,1010.18
2017-10-28T04:55:16.478Z,1010.12
2017-10-28T04:55:57.081Z,1010.1
2017-10-28T04:56:37.663Z,1010.14
2017-10-28T04:57:18.243Z,1010.1
2017-10-28T04:57:58.827Z,1010.16
2017-10-28T04:58:39.432Z,1010.09
2017-10-28T04:59:19.999Z,1010.03
2017-10-28T05:00:00.573Z,1009.98
2017-10-28T05:00:41.141Z,1010.04
2017-10-28T05:01:21.740Z,1010.02
2017-10-28T05:02:02.316Z,1010.05
2017-10-28T05:02:42.905Z,1009.98
2017-10-28T05:03:23.482Z,1009.94
2017-10-28T05:04:04.061Z,1009.95
2017-10-28T05:04:44.653Z,1009.97
2017-10-28T05:05:25.266Z,1009.91
2017-10-28T05:06:05.873Z,1009.9
2017-10-28T05:06:46.494Z,1009.93
2017-10-28T05:07:27.081Z,1009.9
2017-10-28T05:08:07.647Z,1009.88
2017-10-28T05:08:48.232Z,1009.88
2017-10-28T05:09:28.830Z,1009.86
2017-10-28T05:10:09.441Z,1009.86
2017-10-28T05:10:50.044Z,1009.83
2017-10-28T05:11:30.639Z,1009.89
2017-10-28T05:12:11.248Z,1009.84
2017-10-28T05:12:51.828Z,1009.8
2017-10-28T05:13:32.517Z,1009.81
2017-10-28T05:14:13.156Z,1009.73
2017-10-28T05:14:53.778Z,1009.75
2017-10-28T05:15:34.408Z,1009.67
2017-10-28T05:16:15.013Z,1009.61
2017-10-28T05:16:55.642Z,1009.69
2017-10-28T05:17:36.210Z,1009.59
2017-10-28T05:18:16.813Z,1009.58
2017-10-28T05:18:57.428Z,1009.52
2017-10-28T05:19:38.024Z,1009.54
2017-10-28T05:20:18.593Z,1009.47
2017-10-28T05:20:59.178Z,1009.47
2017-10-28T05:21:39.768Z,1009.36
2017-10-28T05:22:20.344Z,1009.35
2017-10-28T05:23:00.912Z,1009.38
2017-10-28T05:23:41.475Z,1009.43
2017-10-28T05:24:22.071Z,1009.38
2017-10-28T05:25:02.668Z,1009.4
2017-10-28T05:25:43.234Z,1009.42
2017-10-28T05:26:23.827Z,1009.46
2017-10-28T05:27:04.449Z,1009.41
2017-10-28T05:27:45.016Z,1009.39
2017-10-28T05:28:25.578Z,1009.39
2017-10-28T05:29:06.179Z,1009.28
2017-10-28T05:29:46.748Z,1009.36
2017-10-28T05:30:27.332Z,1009.36
2017-10-28T05:31:07.913Z,1009.38
2017-10-28T05:31:48.495Z,1009.36
2017-10-28T05:32:29.063Z,1009.38
2017-10-28T05:33:09.650Z,1009.39
2017-10-28T05:33:50.226Z,1009.39
2017-10-28T05:34:30.799Z,1009.4
2017-10-28T05:35:11.418Z,1009.35
2017-10-28T05:35:52.004Z,1009.34
2017-10-28T05:36:32.573Z,1009.38
2017-10-28T05:37:13.159Z,1009.33
2017-10-28T05:37:53.805Z,1009.33
2017-10-28T05:38:34.359Z,1009.36
2017-10-28T05:39:14.944Z,1009.35
2017-10-28T05:39:55.520Z,1009.4
2017-10-28T05:40:36.111Z,1009.33
2017-10-28T05:41:16.701Z,1009.43
2017-10-28T05:41:57.275Z,1009.27
2017-10-28T05:42:37.880Z,1009.27
2017-10-28T05:43:18.949Z,1009.33
2017-10-28T05:43:59.559Z,1009.31
2017-10-28T05:44:40.154Z,1009.32
2017-10-28T05:45:20.758Z,1009.36
2017-10-28T05:46:01.654Z,1009.32
2017-10-28T05:46:42.209Z,1009.29
2017-10-28T05:47:22.853Z,1009.27
2017-10-28T05:48:03.387Z,1009.28
2017-10-28T05:48:43.983Z,1009.3
2017-10-28T05:49:24.566Z,1009.26
2017-10-28T05:50:05.143Z,1009.28
2017-10-28T05:50:45.698Z,1009.28
2017-10-28T05:51:26.275Z,1009.23
2017-10-28T05:52:06.852Z,1009.2
2017-10-28T05:52:47.437Z,1009.13
2017-10-28T05:53:28.027Z,1009.22
2017-10-28T05:54:08.608Z,1009.18
2017-10-28T05:54:49.185Z,1009.15
2017-10-28T05:55:29.764Z,1009.15
2017-10-28T05:56:10.353Z,1009.15
2017-10-28T05:56:50.921Z,1009.06
2017-10-28T05:57:31.495Z,1009.15
2017-10-28T05:58:12.070Z,1009.12
2017-10-28T05:58:52.641Z,1009.1
2017-10-28T05:59:33.226Z,1009.11
2017-10-28T06:00:13.810Z,1009.13
2017-10-28T06:00:54.426Z,1009.14
2017-10-28T06:01:35.078Z,1009.02
2017-10-28T06:02:15.657Z,1009
2017-10-28T06:02:56.315Z,1009.05
2017-10-28T06:03:36.882Z,1008.96
2017-10-28T06:04:17.464Z,1008.91
2017-10-28T06:04:58.064Z,1008.92
2017-10-28T06:05:38.632Z,1008.86
2017-10-28T06:06:19.209Z,1008.83
2017-10-28T06:06:59.796Z,1008.85
2017-10-28T06:07:40.385Z,1008.8
2017-10-28T06:08:20.964Z,1008.83
2017-10-28T06:09:01.530Z,1008.91
2017-10-28T06:09:42.099Z,1008.96
2017-10-28T06:10:22.692Z,1008.87
2017-10-28T06:11:03.279Z,1008.91
2017-10-28T06:11:43.870Z,1008.92
2017-10-28T06:12:24.449Z,1008.93
2017-10-28T06:13:05.008Z,1008.87
2017-10-28T06:13:45.580Z,1008.87
2017-10-28T06:14:26.146Z,1008.81
2017-10-28T06:15:06.725Z,1008.73
2017-10-28T06:15:47.313Z,1008.7
2017-10-28T06:16:27.871Z,1008.77
2017-10-28T06:17:08.543Z,1008.76
2017-10-28T06:17:49.112Z,1008.73
2017-10-28T06:18:29.690Z,1008.76
2017-10-28T06:19:10.268Z,1008.83
2017-10-28T06:19:50.876Z,1008.74
2017-10-28T06:20:31.550Z,1008.85
2017-10-28T06:21:12.158Z,1008.8
2017-10-28T06:21:52.732Z,1008.71
2017-10-28T06:22:33.340Z,1008.77
2017-10-28T06:23:13.913Z,1008.77
2017-10-28T06:23:54.488Z,1008.86
2017-10-28T06:24:35.065Z,1008.88
2017-10-28T06:25:15.634Z,1008.85
2017-10-28T06:25:56.229Z,1008.96
2017-10-28T06:26:36.794Z,1008.92
2017-10-28T06:27:17.357Z,1008.97
2017-10-28T06:27:57.917Z,1008.92
2017-10-28T06:28:38.478Z,1008.92
2017-10-28T06:29:19.222Z,1008.91
2017-10-28T06:29:59.805Z,1008.86
2017-10-28T06:30:40.396Z,1008.84
2017-10-28T06:31:20.970Z,1008.88
2017-10-28T06:32:01.551Z,1008.91
2017-10-28T06:32:42.132Z,1008.88
2017-10-28T06:33:22.701Z,1008.88
2017-10-28T06:34:03.287Z,1008.79
2017-10-28T06:34:43.856Z,1008.85
2017-10-28T06:35:24.415Z,1008.83
2017-10-28T06:36:04.986Z,1008.9
2017-10-28T06:36:45.540Z,1008.99
2017-10-28T06:37:26.120Z,1009.02
2017-10-28T06:38:06.695Z,1008.91
2017-10-28T06:38:47.295Z,1008.91
2017-10-28T06:39:27.878Z,1008.94
2017-10-28T06:40:08.501Z,1008.84
2017-10-28T06:40:49.068Z,1008.87
2017-10-28T06:41:29.697Z,1008.9
2017-10-28T06:42:10.299Z,1008.94
2017-10-28T06:42:50.911Z,1008.81
2017-10-28T06:43:31.500Z,1008.71
2017-10-28T06:44:12.068Z,1008.65
2017-10-28T06:44:52.650Z,1008.68
2017-10-28T06:45:33.235Z,1008.69
2017-10-28T06:46:13.799Z,1008.61
2017-10-28T06:46:54.372Z,1008.64
2017-10-28T06:47:34.947Z,1008.61
2017-10-28T06:48:15.549Z,1008.58
2017-10-28T06:48:56.178Z,1008.56
2017-10-28T06:49:36.730Z,1008.5
2017-10-28T06:50:17.307Z,1008.46
2017-10-28T06:50:58.232Z,1008.44
2017-10-28T06:51:39.154Z,1008.42
2017-10-28T06:52:19.724Z,1008.39
2017-10-28T06:53:00.300Z,1008.37
2017-10-28T06:53:40.865Z,1008.3
2017-10-28T06:54:21.525Z,1008.34
2017-10-28T06:55:02.150Z,1008.3
2017-10-28T06:55:42.706Z,1008.29
2017-10-28T06:56:23.305Z,1008.28
2017-10-28T06:57:03.855Z,1008.3
2017-10-28T06:57:44.444Z,1008.28
2017-10-28T06:58:25.014Z,1008.26
2017-10-28T06:59:05.614Z,1008.22
2017-10-28T06:59:46.238Z,1008.33
2017-10-28T07:00:26.873Z,1008.32
2017-10-28T07:01:07.428Z,1008.33
2017-10-28T07:01:48.025Z,1008.34
2017-10-28T07:02:29.869Z,1008.37
2017-10-28T07:03:16.550Z,1008.38
2017-10-28T07:03:57.142Z,1008.3
2017-10-28T07:04:37.766Z,1008.25
2017-10-28T07:05:18.384Z,1008.28
2017-10-28T07:05:58.941Z,1008.22
2017-10-28T07:06:39.550Z,1008.26
2017-10-28T07:07:20.113Z,1008.29
2017-10-28T07:08:00.686Z,1008.25
2017-10-28T07:08:41.257Z,1008.26
2017-10-28T07:09:21.826Z,1008.27
2017-10-28T07:10:02.399Z,1008.22
2017-10-28T07:10:42.988Z,1008.31
2017-10-28T07:11:23.574Z,1008.2
2017-10-28T07:12:04.141Z,1008.34
2017-10-28T07:12:44.735Z,1008.19
2017-10-28T07:13:25.326Z,1008.22
2017-10-28T07:14:05.890Z,1008.24
2017-10-28T07:14:46.468Z,1008.18
2017-10-28T07:15:27.020Z,1008.25
2017-10-28T07:16:07.649Z,1008.12
2017-10-28T07:16:48.224Z,1008.18
2017-10-28T07:17:28.835Z,1008.16
2017-10-28T07:18:09.454Z,1008.21
2017-10-28T07:18:50.006Z,1008.2
2017-10-28T07:19:30.569Z,1008.16
2017-10-28T07:20:11.129Z,1008.16
2017-10-28T07:20:51.690Z,1008.21
2017-10-28T07:21:32.253Z,1008.21
2017-10-28T07:22:12.808Z,1008.23
2017-10-28T07:22:53.399Z,1008.14
2017-10-28T07:23:33.993Z,1008.2
2017-10-28T07:24:14.563Z,1008.19
2017-10-28T07:24:55.146Z,1008.19
2017-10-28T07:25:35.762Z,1008.09
2017-10-28T07:26:16.381Z,1008.06
2017-10-28T07:26:56.941Z,1008.1
2017-10-28T07:27:37.513Z,1008.09
2017-10-28T07:28:18.125Z,1008.01
2017-10-28T07:28:58.743Z,1008.04
2017-10-28T07:29:39.319Z,1008.05
2017-10-28T07:30:20.065Z,1008.02
2017-10-28T07:31:00.642Z,1007.99
2017-10-28T07:31:41.207Z,1007.99
2017-10-28T07:32:21.783Z,1008.06
2017-10-28T07:33:02.380Z,1007.98
2017-10-28T07:33:42.970Z,1008.03
2017-10-28T07:34:23.557Z,1008.02
2017-10-28T07:35:04.216Z,1008.05
2017-10-28T07:35:44.792Z,1007.99
2017-10-28T07:36:25.399Z,1007.99
2017-10-28T07:37:05.969Z,1008.02
2017-10-28T07:37:46.545Z,1007.93
2017-10-28T07:38:27.132Z,1008
2017-10-28T07:39:07.711Z,1007.98
2017-10-28T07:39:48.295Z,1007.98
2017-10-28T07:40:28.889Z,1007.91
2017-10-28T07:41:09.471Z,1007.83
2017-10-28T07:41:50.036Z,1007.83
2017-10-28T07:42:30.612Z,1007.82
2017-10-28T07:43:11.193Z,1007.79
2017-10-28T07:43:51.787Z,1007.76
2017-10-28T07:44:32.377Z,1007.78
2017-10-28T07:45:12.955Z,1007.79
2017-10-28T07:45:53.533Z,1007.78
2017-10-28T07:46:34.103Z,1007.74
2017-10-28T07:47:14.676Z,1007.76
2017-10-28T07:47:55.245Z,1007.72
2017-10-28T07:48:35.808Z,1007.74
2017-10-28T07:49:16.375Z,1007.69
2017-10-28T07:49:56.944Z,1007.69
2017-10-28T07:50:37.594Z,1007.65
2017-10-28T07:51:18.157Z,1007.7
2017-10-28T07:51:58.716Z,1007.68
2017-10-28T07:52:39.321Z,1007.63
2017-10-28T07:53:19.909Z,1007.59
2017-10-28T07:54:00.469Z,1007.57
2017-10-28T07:54:41.056Z,1007.56
2017-10-28T07:55:21.625Z,1007.61
2017-10-28T07:56:02.224Z,1007.71
2017-10-28T07:56:42.802Z,1007.64
2017-10-28T07:57:23.386Z,1007.58
2017-10-28T07:58:03.976Z,1007.56
2017-10-28T07:58:44.540Z,1007.38
2017-10-28T07:59:25.117Z,1007.33
2017-10-28T08:00:05.693Z,1007.31
2017-10-28T08:00:46.272Z,1007.25
2017-10-28T08:01:26.831Z,1007.23
2017-10-28T08:02:07.569Z,1007.29
2017-10-28T08:02:48.169Z,1007.31
2017-10-28T08:03:28.788Z,1007.33
2017-10-28T08:04:09.347Z,1007.42
2017-10-28T08:04:49.934Z,1007.48
2017-10-28T08:05:30.546Z,1007.4
2017-10-28T08:06:11.147Z,1007.36
2017-10-28T08:06:51.792Z,1007.35
2017-10-28T08:07:32.381Z,1007.39
2017-10-28T08:08:12.993Z,1007.21
2017-10-28T08:08:53.733Z,1007.29
2017-10-28T08:09:34.343Z,1007.26
2017-10-28T08:10:14.920Z,1007.32
2017-10-28T08:10:55.542Z,1007.22
2017-10-28T08:11:36.158Z,1007.29
2017-10-28T08:12:16.734Z,1007.27
2017-10-28T08:12:57.345Z,1007.28
2017-10-28T08:13:37.940Z,1007.41
2017-10-28T08:14:18.540Z,1007.2